Time;durP1;ratioP1;P1;durP2;ratioP2;P2;SDS_P1;SDS_P2;PMS_P1;PMS_P2;Temp;Humidity;BMP_temperature;BMP_pressure;BME280_temperature;BME280_humidity;BME280_pressure;Samples;Min_cycle;Max_cycle;Signal;HPM_P1;HPM_P2
2023/10/31 00:00:29;;;;;;;5.93;0.40;;;12.70;99.90;;;;;;5055463;28;20265;-58
2023/10/31 00:02:57;;;;;;;5.18;0.47;;;12.60;99.90;;;;;;5055143;28;20206;-58
2023/10/31 00:05:25;;;;;;;5.47;0.40;;;12.60;99.90;;;;;;5055074;28;20219;-58
2023/10/31 00:07:54;;;;;;;2.47;0.40;;;12.60;99.90;;;;;;5055142;28;20264;-58
2023/10/31 00:10:22;;;;;;;3.22;0.43;;;12.50;99.90;;;;;;5054814;28;20233;-60
2023/10/31 00:12:50;;;;;;;0.52;0.40;;;12.50;99.90;;;;;;5054666;28;20210;-59
2023/10/31 00:15:18;;;;;;;2.78;0.40;;;12.50;99.90;;;;;;5054088;28;20241;-59
2023/10/31 00:17:46;;;;;;;1.55;0.50;;;12.40;99.90;;;;;;5054096;28;20583;-59
2023/10/31 00:20:14;;;;;;;3.05;0.30;;;12.40;99.90;;;;;;5053727;28;20664;-58
2023/10/31 00:22:42;;;;;;;8.52;0.40;;;12.30;99.90;;;;;;5053654;28;20267;-59
2023/10/31 00:25:11;;;;;;;0.80;0.40;;;12.30;99.90;;;;;;5053672;28;20214;-58
2023/10/31 00:27:39;;;;;;;0.30;0.30;;;12.30;99.90;;;;;;5054058;28;20646;-59
2023/10/31 00:30:08;;;;;;;8.05;0.50;;;12.20;99.90;;;;;;5070047;22;20265;-62
2023/10/31 00:32:36;;;;;;;1.50;0.30;;;12.10;99.90;;;;;;5071405;28;20310;-62
2023/10/31 00:35:04;;;;;;;1.63;0.20;;;12.10;99.90;;;;;;5072780;28;20295;-62
2023/10/31 00:37:32;;;;;;;4.07;0.30;;;12.10;99.90;;;;;;5072989;28;20201;-62
2023/10/31 00:40:00;;;;;;;0.52;0.30;;;12.10;99.90;;;;;;5073049;28;20204;-62
2023/10/31 00:42:29;;;;;;;5.15;0.52;;;12.10;99.90;;;;;;5053112;28;20604;-63
2023/10/31 00:44:57;;;;;;;0.30;0.30;;;12.00;99.90;;;;;;5053030;28;20241;-62
2023/10/31 00:47:25;;;;;;;0.28;0.28;;;12.00;99.90;;;;;;5052976;28;20656;-62
2023/10/31 00:49:53;;;;;;;2.45;0.50;;;12.00;99.90;;;;;;5053285;28;20316;-62
2023/10/31 00:52:21;;;;;;;1.55;0.20;;;12.00;99.90;;;;;;5052874;28;20225;-62
2023/10/31 00:54:49;;;;;;;4.85;0.20;;;11.90;99.90;;;;;;5053059;28;20683;-63
2023/10/31 00:57:17;;;;;;;1.75;0.28;;;11.90;99.90;;;;;;5052793;28;20297;-63
2023/10/31 00:59:46;;;;;;;1.50;0.10;;;11.90;99.90;;;;;;5052856;28;20198;-63
2023/10/31 01:02:14;;;;;;;0.30;0.30;;;11.90;99.90;;;;;;5052146;28;20225;-63
2023/10/31 01:04:42;;;;;;;1.20;0.25;;;11.90;99.90;;;;;;5044690;28;20202;-63
2023/10/31 01:07:12;;;;;;;0.43;0.20;;;11.90;99.90;;;;;;5052582;28;20205;-62
2023/10/31 01:09:39;;;;;;;1.35;0.30;;;11.80;99.90;;;;;;5052748;28;20218;-63
2023/10/31 01:12:07;;;;;;;0.20;0.20;;;11.80;99.90;;;;;;5052423;28;20722;-62
2023/10/31 01:14:35;;;;;;;1.23;0.30;;;11.80;99.90;;;;;;5050760;28;20210;-63
2023/10/31 01:17:05;;;;;;;1.23;0.20;;;11.80;99.90;;;;;;5052824;28;20233;-63
2023/10/31 01:19:32;;;;;;;0.20;0.20;;;11.80;99.90;;;;;;5052788;28;20381;-62
2023/10/31 01:22:00;;;;;;;1.75;0.20;;;11.70;99.90;;;;;;5052311;28;20230;-62
2023/10/31 01:24:28;;;;;;;1.20;0.30;;;11.70;99.90;;;;;;5052429;28;20217;-62
2023/10/31 01:26:56;;;;;;;0.30;0.30;;;11.70;99.90;;;;;;5052013;28;20237;-62
2023/10/31 01:29:24;;;;;;;1.10;0.32;;;11.60;99.90;;;;;;5052491;28;20321;-62
2023/10/31 01:31:52;;;;;;;0.80;0.30;;;11.60;99.90;;;;;;5052038;28;20265;-62
2023/10/31 01:34:29;;;;;;;2.67;0.50;;;11.60;99.90;;;;;;5052375;28;20264;-63
2023/10/31 01:36:57;;;;;;;0.43;0.38;;;11.50;99.90;;;;;;5052032;28;20293;-62
2023/10/31 01:39:25;;;;;;;6.00;0.40;;;11.50;99.90;;;;;;5051927;28;20237;-62
2023/10/31 01:41:54;;;;;;;0.90;0.20;;;11.40;99.90;;;;;;5052006;28;20673;-62
2023/10/31 01:44:22;;;;;;;1.85;0.30;;;11.40;99.90;;;;;;5052214;28;20206;-62
2023/10/31 01:46:50;;;;;;;1.98;0.30;;;11.50;99.90;;;;;;5051911;28;20289;-62
2023/10/31 01:49:18;;;;;;;3.63;0.40;;;11.40;99.90;;;;;;5051889;28;20236;-62
2023/10/31 01:51:47;;;;;;;2.55;0.50;;;11.40;99.90;;;;;;5051789;28;20676;-62
2023/10/31 01:54:15;;;;;;;1.77;0.30;;;11.40;99.90;;;;;;5052083;28;20210;-62
2023/10/31 01:56:43;;;;;;;4.28;0.52;;;11.40;99.90;;;;;;5051745;28;20292;-62
2023/10/31 01:59:10;;;;;;;2.70;0.32;;;11.30;99.90;;;;;;5051592;28;20624;-63
2023/10/31 02:01:39;;;;;;;1.55;0.30;;;11.30;99.90;;;;;;5051668;28;20745;-63
2023/10/31 02:04:07;;;;;;;4.95;0.40;;;11.30;99.90;;;;;;5051944;28;20213;-63
2023/10/31 02:06:35;;;;;;;6.93;0.40;;;11.30;99.90;;;;;;5051671;28;20217;-62
2023/10/31 02:09:05;;;;;;;1.73;0.32;;;11.20;99.90;;;;;;5051729;28;20201;-63
2023/10/31 02:11:33;;;;;;;0.35;0.35;;;11.20;99.90;;;;;;5051524;28;20313;-63
2023/10/31 02:14:01;;;;;;;8.82;0.55;;;11.20;99.90;;;;;;5050758;28;20212;-62
2023/10/31 02:16:29;;;;;;;7.72;0.43;;;11.10;99.90;;;;;;5051404;28;20210;-62
2023/10/31 02:18:57;;;;;;;3.50;0.50;;;11.10;99.90;;;;;;5051229;28;20255;-63
2023/10/31 02:21:25;;;;;;;1.35;0.50;;;11.00;99.90;;;;;;5051710;28;20312;-62
2023/10/31 02:24:00;;;;;;;5.57;0.50;;;11.00;99.90;;;;;;5051367;28;20666;-62
2023/10/31 02:26:31;;;;;;;4.43;0.30;;;11.00;99.90;;;;;;5048925;28;20241;-62
2023/10/31 02:28:59;;;;;;;1.60;0.40;;;10.90;99.90;;;;;;5051179;28;20789;-62
2023/10/31 02:31:27;;;;;;;3.75;0.32;;;10.80;99.90;;;;;;5051079;28;20725;-62
2023/10/31 02:33:55;;;;;;;1.10;0.30;;;10.80;99.90;;;;;;5051581;28;20678;-62
2023/10/31 02:36:23;;;;;;;4.80;0.55;;;10.80;99.90;;;;;;5051226;28;20287;-62
2023/10/31 02:38:51;;;;;;;2.30;0.32;;;10.70;99.90;;;;;;5051308;28;20206;-62
2023/10/31 02:41:20;;;;;;;0.47;0.30;;;10.70;99.90;;;;;;5051106;28;20322;-62
2023/10/31 02:43:48;;;;;;;0.98;0.30;;;10.70;99.90;;;;;;5051390;28;20213;-63
2023/10/31 02:46:17;;;;;;;2.80;0.30;;;10.70;99.90;;;;;;5051231;28;20205;-62
2023/10/31 02:48:45;;;;;;;0.85;0.20;;;10.70;99.90;;;;;;5051000;28;20675;-62
2023/10/31 02:51:13;;;;;;;3.08;0.40;;;10.60;99.90;;;;;;5051022;28;20695;-62
2023/10/31 02:53:41;;;;;;;2.75;0.30;;;10.70;99.90;;;;;;5050878;28;20205;-62
2023/10/31 02:56:09;;;;;;;1.33;0.20;;;10.60;99.90;;;;;;5051219;28;20209;-62
2023/10/31 02:58:38;;;;;;;1.10;0.30;;;10.60;99.90;;;;;;5051105;28;20210;-62
2023/10/31 03:01:06;;;;;;;1.65;0.30;;;10.60;99.90;;;;;;5051140;28;20222;-62
2023/10/31 03:03:34;;;;;;;0.52;0.30;;;10.60;99.90;;;;;;5050943;28;20245;-62
2023/10/31 03:06:03;;;;;;;2.33;0.20;;;10.50;99.90;;;;;;5048686;28;20202;-62
2023/10/31 03:08:30;;;;;;;0.93;0.30;;;10.60;99.90;;;;;;5050557;28;20480;-62
2023/10/31 03:10:58;;;;;;;2.72;0.38;;;10.70;99.90;;;;;;5051015;28;20261;-62
2023/10/31 03:13:26;;;;;;;2.13;0.25;;;10.60;99.90;;;;;;5049343;28;20206;-62
2023/10/31 03:15:55;;;;;;;1.73;0.30;;;10.60;99.90;;;;;;5051132;28;20312;-62
2023/10/31 03:18:23;;;;;;;0.60;0.20;;;10.60;99.90;;;;;;5050656;28;20301;-62
2023/10/31 03:20:51;;;;;;;1.70;0.30;;;10.50;99.90;;;;;;5051367;28;20283;-63
2023/10/31 03:23:19;;;;;;;5.85;0.45;;;10.50;99.90;;;;;;5050727;28;20671;-62
2023/10/31 03:25:46;;;;;;;4.32;0.73;;;10.50;99.90;;;;;;5052525;28;20241;-62
2023/10/31 03:28:22;;;;;;;3.50;0.38;;;10.50;99.90;;;;;;5054744;28;20586;-62
2023/10/31 03:30:51;;;;;;;2.03;0.40;;;10.50;99.90;;;;;;5054454;28;20652;-62
2023/10/31 03:33:20;;;;;;;4.78;0.70;;;10.50;99.90;;;;;;5054150;28;20234;-62
2023/10/31 03:35:48;;;;;;;3.38;0.30;;;10.50;99.90;;;;;;5054426;28;20293;-63
2023/10/31 03:38:16;;;;;;;1.58;0.32;;;10.40;99.90;;;;;;5054568;28;20304;-61
2023/10/31 03:40:44;;;;;;;2.63;0.63;;;10.40;99.90;;;;;;5054549;28;20226;-62
2023/10/31 03:43:12;;;;;;;4.45;0.50;;;10.40;99.90;;;;;;5054333;28;20206;-62
2023/10/31 03:45:40;;;;;;;4.18;0.60;;;10.40;99.90;;;;;;5054097;28;20289;-62
2023/10/31 03:48:07;;;;;;;0.60;0.30;;;10.40;99.90;;;;;;5054102;28;20253;-63
2023/10/31 03:50:36;;;;;;;2.40;0.38;;;10.40;99.90;;;;;;5054293;28;20320;-62
2023/10/31 03:53:04;;;;;;;0.90;0.60;;;10.40;99.90;;;;;;5054149;28;20210;-62
2023/10/31 03:55:32;;;;;;;1.55;0.30;;;10.40;99.90;;;;;;5054107;28;20210;-62
2023/10/31 03:58:00;;;;;;;6.25;0.50;;;10.40;99.90;;;;;;5053924;28;20668;-62
2023/10/31 04:00:28;;;;;;;1.13;0.22;;;10.40;99.90;;;;;;5053830;28;20268;-62
2023/10/31 04:02:56;;;;;;;1.08;0.25;;;10.40;99.90;;;;;;5053974;28;20213;-62
2023/10/31 04:05:24;;;;;;;2.13;0.60;;;10.50;99.90;;;;;;5054063;28;20202;-63
2023/10/31 04:07:53;;;;;;;1.52;0.35;;;10.50;99.90;;;;;;5054002;28;20288;-62
2023/10/31 04:10:21;;;;;;;3.92;0.30;;;10.50;99.90;;;;;;5053878;28;20234;-62
2023/10/31 04:12:49;;;;;;;0.93;0.30;;;10.50;99.90;;;;;;5053600;28;20289;-62
2023/10/31 04:15:17;;;;;;;0.80;0.40;;;10.50;99.90;;;;;;5053118;28;20640;-62
2023/10/31 04:17:45;;;;;;;0.80;0.55;;;10.60;99.90;;;;;;5053565;28;20210;-62
2023/10/31 04:20:13;;;;;;;0.30;0.30;;;10.60;99.90;;;;;;5053788;28;20206;-61
2023/10/31 04:22:41;;;;;;;2.40;0.50;;;10.60;99.90;;;;;;5050596;28;20198;-62
2023/10/31 04:25:10;;;;;;;0.60;0.30;;;10.60;99.90;;;;;;5053534;28;20209;-62
2023/10/31 04:27:38;;;;;;;1.63;0.50;;;10.70;99.90;;;;;;5053101;28;20198;-63
2023/10/31 04:30:07;;;;;;;0.60;0.52;;;10.70;99.90;;;;;;5053660;28;20284;-63
2023/10/31 04:32:36;;;;;;;4.70;0.50;;;10.70;99.90;;;;;;5053105;28;20699;-63
2023/10/31 04:35:05;;;;;;;5.85;0.40;;;10.70;99.90;;;;;;5053410;28;20241;-62
2023/10/31 04:37:32;;;;;;;3.22;0.50;;;10.70;99.90;;;;;;5052371;28;20263;-62
2023/10/31 04:40:02;;;;;;;2.05;0.60;;;10.80;99.90;;;;;;5053196;28;20292;-63
2023/10/31 04:42:33;;;;;;;2.05;0.50;;;10.80;99.90;;;;;;5053331;28;20251;-63
2023/10/31 04:45:01;;;;;;;2.17;0.50;;;10.80;99.90;;;;;;5053311;28;20209;-63
2023/10/31 04:47:29;;;;;;;2.55;0.38;;;10.80;99.90;;;;;;5053107;28;20448;-63
2023/10/31 04:49:57;;;;;;;0.40;0.40;;;10.80;99.90;;;;;;5053283;28;20335;-63
2023/10/31 04:52:25;;;;;;;1.90;0.55;;;10.90;99.90;;;;;;5052800;28;20658;-63
2023/10/31 04:54:53;;;;;;;2.72;0.40;;;10.90;99.90;;;;;;5053221;28;20202;-61
2023/10/31 04:57:21;;;;;;;0.40;0.40;;;10.90;99.90;;;;;;5052991;28;20230;-63
2023/10/31 04:59:52;;;;;;;1.40;0.60;;;10.90;99.90;;;;;;5053102;28;20331;-63
2023/10/31 05:02:20;;;;;;;2.13;0.40;;;10.90;99.90;;;;;;5050590;28;20305;-61
2023/10/31 05:04:50;;;;;;;3.53;0.60;;;10.90;99.90;;;;;;5051823;28;20209;-62
2023/10/31 05:07:18;;;;;;;2.55;0.60;;;10.90;99.90;;;;;;5052447;28;20244;-62
2023/10/31 05:09:46;;;;;;;0.40;0.40;;;10.90;99.90;;;;;;5052758;28;20214;-63
2023/10/31 05:12:14;;;;;;;0.65;0.65;;;10.90;99.90;;;;;;5050054;28;20239;-63
2023/10/31 05:14:42;;;;;;;1.55;0.60;;;10.90;99.90;;;;;;5052196;28;20289;-62
2023/10/31 05:17:11;;;;;;;4.20;0.52;;;11.00;99.90;;;;;;5052426;28;20256;-63
2023/10/31 05:19:39;;;;;;;0.52;0.50;;;11.00;99.90;;;;;;5052431;28;20217;-62
2023/10/31 05:22:07;;;;;;;2.45;0.70;;;11.00;99.90;;;;;;5052590;28;20257;-63
2023/10/31 05:24:35;;;;;;;2.05;0.47;;;11.00;99.90;;;;;;5051624;28;20206;-62
2023/10/31 05:27:05;;;;;;;4.45;0.95;;;11.00;99.90;;;;;;5052157;28;20205;-62
2023/10/31 05:29:32;;;;;;;2.45;0.50;;;11.00;99.90;;;;;;5052169;28;20655;-62
2023/10/31 05:32:01;;;;;;;0.60;0.60;;;11.00;99.90;;;;;;5052031;28;20225;-61
2023/10/31 05:34:30;;;;;;;4.30;0.35;;;11.00;99.90;;;;;;5052158;28;20202;-63
2023/10/31 05:36:58;;;;;;;4.88;0.38;;;11.00;99.90;;;;;;5044093;28;20298;-63
2023/10/31 05:39:26;;;;;;;1.00;0.47;;;11.00;99.90;;;;;;5052234;28;20311;-63
2023/10/31 05:41:54;;;;;;;2.55;0.40;;;11.00;99.90;;;;;;5052143;28;20249;-63
2023/10/31 05:44:22;;;;;;;1.42;0.45;;;11.00;99.90;;;;;;5052113;28;20210;-63
2023/10/31 05:46:50;;;;;;;0.40;0.40;;;11.00;99.90;;;;;;5051569;28;20237;-63
2023/10/31 05:49:19;;;;;;;1.95;0.40;;;11.00;99.90;;;;;;5048982;28;20587;-63
2023/10/31 05:51:52;;;;;;;0.40;0.40;;;11.00;99.90;;;;;;5050307;28;20230;-63
2023/10/31 05:54:20;;;;;;;1.70;0.35;;;11.00;99.90;;;;;;5046436;28;20675;-61
2023/10/31 05:56:48;;;;;;;1.90;0.40;;;11.00;99.90;;;;;;5051481;28;20589;-59
2023/10/31 05:59:16;;;;;;;1.17;0.43;;;11.00;99.90;;;;;;5047695;28;21038;-61
2023/10/31 06:01:44;;;;;;;1.52;0.50;;;11.00;99.90;;;;;;5049696;28;20222;-60
2023/10/31 06:04:12;;;;;;;2.08;0.38;;;11.00;99.90;;;;;;5050866;28;20217;-60
2023/10/31 06:06:40;;;;;;;0.20;0.20;;;11.00;99.90;;;;;;5051352;28;20212;-60
2023/10/31 06:09:10;;;;;;;0.93;0.30;;;11.00;99.90;;;;;;5051530;28;20233;-61
2023/10/31 06:11:41;;;;;;;0.85;0.28;;;11.00;99.90;;;;;;5051194;28;20709;-61
2023/10/31 06:14:09;;;;;;;1.65;0.30;;;11.00;99.90;;;;;;5051570;28;20292;-60
2023/10/31 06:16:40;;;;;;;2.47;0.40;;;11.00;99.90;;;;;;5051302;28;20234;-60
2023/10/31 06:19:08;;;;;;;2.50;0.30;;;11.00;99.90;;;;;;5051253;28;20210;-61
2023/10/31 06:21:37;;;;;;;0.30;0.20;;;11.00;99.90;;;;;;5051143;28;20230;-61
2023/10/31 06:24:05;;;;;;;3.38;0.40;;;11.00;99.90;;;;;;5050932;28;20300;-60
2023/10/31 06:26:34;;;;;;;1.50;0.40;;;11.00;99.90;;;;;;5051283;28;20210;-60
2023/10/31 06:29:02;;;;;;;0.30;0.30;;;11.00;99.90;;;;;;5051218;28;20703;-61
2023/10/31 06:31:35;;;;;;;0.50;0.30;;;11.00;99.90;;;;;;5074345;22;20240;-70
2023/10/31 06:34:03;;;;;;;3.50;0.40;;;11.00;99.90;;;;;;5051419;28;20205;-70
2023/10/31 06:36:31;;;;;;;3.30;0.30;;;11.00;99.90;;;;;;5050247;28;20613;-70
2023/10/31 06:38:59;;;;;;;1.08;0.30;;;11.00;99.90;;;;;;5051005;28;20225;-70
2023/10/31 06:41:27;;;;;;;1.67;0.30;;;11.00;99.90;;;;;;5051270;28;20283;-70
2023/10/31 06:43:56;;;;;;;1.23;0.43;;;11.00;99.90;;;;;;5037424;28;20211;-70
2023/10/31 06:46:24;;;;;;;1.20;0.32;;;11.00;99.90;;;;;;5030913;28;20206;-70
2023/10/31 06:48:52;;;;;;;1.85;0.50;;;11.00;99.90;;;;;;5030804;28;20210;-70
2023/10/31 06:51:20;;;;;;;2.92;0.30;;;11.00;99.90;;;;;;5029989;28;20261;-70
2023/10/31 06:53:47;;;;;;;3.30;0.57;;;11.10;99.90;;;;;;5026887;28;20313;-70
2023/10/31 06:56:15;;;;;;;1.20;0.20;;;11.10;99.90;;;;;;5030941;28;20206;-70
2023/10/31 06:58:43;;;;;;;1.05;0.70;;;11.10;99.90;;;;;;5030977;28;20282;-70
2023/10/31 07:01:18;;;;;;;1.77;0.30;;;11.10;99.90;;;;;;5033372;28;20210;-72
2023/10/31 07:03:46;;;;;;;0.30;0.30;;;11.10;99.90;;;;;;5034782;28;20237;-72
2023/10/31 07:06:14;;;;;;;2.25;0.30;;;11.10;99.90;;;;;;5034662;28;20202;-72
2023/10/31 07:08:42;;;;;;;1.55;0.38;;;11.10;99.90;;;;;;5034737;28;20249;-72
2023/10/31 07:11:10;;;;;;;0.57;0.35;;;11.10;99.90;;;;;;5035061;28;20298;-73
2023/10/31 07:13:38;;;;;;;1.40;0.40;;;11.10;99.90;;;;;;5032940;28;20245;-72
2023/10/31 07:16:07;;;;;;;1.23;0.30;;;11.10;99.90;;;;;;5028579;28;20314;-72
2023/10/31 07:18:36;;;;;;;0.45;0.40;;;11.10;99.90;;;;;;5030275;28;20216;-72
2023/10/31 07:21:05;;;;;;;0.30;0.30;;;11.10;99.90;;;;;;5028709;28;20341;-72
2023/10/31 07:23:33;;;;;;;1.67;0.30;;;11.10;99.90;;;;;;5030241;28;20234;-72
2023/10/31 07:26:05;;;;;;;0.15;0.15;;;11.10;99.90;;;;;;5030664;28;20210;-72
2023/10/31 07:28:33;;;;;;;1.45;0.30;;;11.10;99.90;;;;;;5042053;28;20353;-72
2023/10/31 07:31:01;;;;;;;2.17;0.30;;;11.10;99.90;;;;;;5034438;28;20293;-72
2023/10/31 07:33:29;;;;;;;2.13;0.38;;;11.10;99.90;;;;;;5034269;28;20292;-72
2023/10/31 07:35:58;;;;;;;2.47;0.35;;;11.10;99.90;;;;;;5034062;28;20635;-72
2023/10/31 07:38:26;;;;;;;1.30;0.40;;;11.10;99.90;;;;;;5033467;28;20226;-72
2023/10/31 07:40:54;;;;;;;3.90;0.40;;;11.10;99.90;;;;;;5048949;28;20215;-72
2023/10/31 07:43:22;;;;;;;0.95;0.30;;;11.10;99.90;;;;;;5039600;28;20227;-72
2023/10/31 07:45:50;;;;;;;1.40;0.70;;;11.10;99.90;;;;;;5034164;28;20256;-72
2023/10/31 07:48:17;;;;;;;0.28;0.28;;;11.10;99.90;;;;;;5033819;28;20667;-73
2023/10/31 07:50:45;;;;;;;2.83;0.38;;;11.10;99.90;;;;;;5043214;28;20586;-72
2023/10/31 07:53:15;;;;;;;0.43;0.43;;;11.20;99.90;;;;;;5053497;28;20627;-72
2023/10/31 07:55:43;;;;;;;4.32;0.40;;;11.20;99.90;;;;;;5053481;28;20687;-72
2023/10/31 07:58:10;;;;;;;2.67;0.43;;;11.10;99.90;;;;;;5053755;28;20210;-72
2023/10/31 08:00:39;;;;;;;3.42;0.30;;;11.20;99.90;;;;;;5053935;28;20210;-72
2023/10/31 08:03:06;;;;;;;1.38;0.32;;;11.30;99.90;;;;;;5053725;28;20233;-72
2023/10/31 08:05:35;;;;;;;0.95;0.40;;;11.30;99.90;;;;;;5053638;28;20205;-72
2023/10/31 08:08:02;;;;;;;0.57;0.38;;;11.30;99.90;;;;;;5053525;28;20650;-72
2023/10/31 08:10:34;;;;;;;0.68;0.20;;;11.40;99.90;;;;;;5053370;28;20227;-72
2023/10/31 08:13:02;;;;;;;2.90;0.40;;;11.40;99.90;;;;;;5051985;28;20309;-72
2023/10/31 08:15:30;;;;;;;1.50;0.40;;;11.50;99.90;;;;;;5053517;28;20263;-72
2023/10/31 08:17:57;;;;;;;2.53;0.47;;;11.50;99.90;;;;;;5053454;28;20210;-72
2023/10/31 08:20:25;;;;;;;1.23;0.40;;;11.50;99.90;;;;;;5053370;28;20233;-72
2023/10/31 08:22:53;;;;;;;0.50;0.50;;;11.60;99.90;;;;;;5041937;28;20801;-72
2023/10/31 08:25:22;;;;;;;2.15;0.30;;;11.60;99.90;;;;;;5028228;28;20634;-73
2023/10/31 08:27:51;;;;;;;0.68;0.43;;;11.60;99.90;;;;;;5032856;28;20261;-72
2023/10/31 08:30:20;;;;;;;0.40;0.40;;;11.70;99.90;;;;;;5046952;28;20238;-73
2023/10/31 08:32:48;;;;;;;0.95;0.50;;;11.70;99.90;;;;;;5053333;28;20618;-72
2023/10/31 08:35:16;;;;;;;1.65;0.40;;;11.80;99.90;;;;;;5048301;28;20206;-72
2023/10/31 08:37:43;;;;;;;0.50;0.40;;;11.90;99.90;;;;;;5033480;28;20209;-73
2023/10/31 08:40:12;;;;;;;3.42;0.50;;;11.90;99.90;;;;;;5033174;28;20691;-72
2023/10/31 08:42:41;;;;;;;2.53;0.28;;;12.00;99.90;;;;;;5033193;28;20230;-72
2023/10/31 08:45:10;;;;;;;0.45;0.30;;;12.00;99.90;;;;;;5032926;28;20218;-72
2023/10/31 08:47:38;;;;;;;1.98;0.40;;;12.00;99.90;;;;;;5034260;28;20238;-72
2023/10/31 08:50:08;;;;;;;0.43;0.43;;;12.10;99.90;;;;;;5032038;28;20217;-72
2023/10/31 08:52:36;;;;;;;1.65;0.30;;;12.10;99.90;;;;;;5032891;28;20239;-73
2023/10/31 08:55:04;;;;;;;0.20;0.20;;;12.20;99.90;;;;;;5032578;28;20281;-72
2023/10/31 08:57:33;;;;;;;5.60;0.50;;;12.20;99.90;;;;;;5032439;28;20332;-72
2023/10/31 09:00:01;;;;;;;0.65;0.40;;;12.20;99.90;;;;;;5032591;28;20206;-72
2023/10/31 09:02:31;;;;;;;1.98;0.40;;;12.20;99.90;;;;;;5047019;28;20321;-72
2023/10/31 09:04:58;;;;;;;1.85;0.28;;;12.30;99.90;;;;;;5052422;28;20359;-72
2023/10/31 09:07:26;;;;;;;0.73;0.30;;;12.30;99.90;;;;;;5046905;28;20301;-72
2023/10/31 09:09:54;;;;;;;0.47;0.30;;;12.30;99.90;;;;;;5031648;28;20253;-72
2023/10/31 09:12:22;;;;;;;0.70;0.40;;;12.40;99.90;;;;;;5032521;28;20234;-73
2023/10/31 09:14:50;;;;;;;1.98;0.30;;;12.40;99.90;;;;;;5029439;28;20218;-72
2023/10/31 09:17:18;;;;;;;1.55;0.30;;;12.40;99.90;;;;;;5031387;28;20238;-72
2023/10/31 09:19:47;;;;;;;0.38;0.20;;;12.40;99.90;;;;;;5031916;28;20222;-72
2023/10/31 09:22:16;;;;;;;2.70;0.30;;;12.50;99.90;;;;;;5027474;28;20262;-72
2023/10/31 09:24:44;;;;;;;2.42;0.25;;;12.50;99.90;;;;;;5023520;28;20651;-73
2023/10/31 09:27:13;;;;;;;0.82;0.30;;;12.60;99.90;;;;;;5022996;28;20302;-72
2023/10/31 09:29:41;;;;;;;1.15;0.30;;;12.70;99.90;;;;;;5031265;28;20301;-72
2023/10/31 09:32:09;;;;;;;1.13;0.40;;;12.70;99.90;;;;;;5026004;28;20676;-73
2023/10/31 09:34:37;;;;;;;2.05;0.50;;;12.80;99.90;;;;;;5044680;28;20222;-72
2023/10/31 09:37:06;;;;;;;0.80;0.68;;;12.80;99.90;;;;;;5031968;28;20268;-72
2023/10/31 09:39:34;;;;;;;0.93;0.50;;;12.80;99.90;;;;;;5032273;28;20256;-72
2023/10/31 09:42:02;;;;;;;2.50;0.30;;;12.70;99.90;;;;;;5031425;28;20276;-72
2023/10/31 09:44:30;;;;;;;0.40;0.38;;;12.70;99.90;;;;;;5031935;28;20202;-72
2023/10/31 09:46:58;;;;;;;1.55;0.40;;;12.70;99.90;;;;;;5049989;28;20233;-72
2023/10/31 09:49:26;;;;;;;3.38;0.50;;;12.60;99.90;;;;;;5051743;28;20213;-72
2023/10/31 09:51:54;;;;;;;4.55;0.30;;;12.60;99.90;;;;;;5051793;28;20280;-73
2023/10/31 09:54:23;;;;;;;0.50;0.30;;;12.60;99.90;;;;;;5051616;28;20305;-72
2023/10/31 09:56:51;;;;;;;1.90;0.40;;;12.60;99.90;;;;;;5051599;28;20297;-72
2023/10/31 09:59:20;;;;;;;1.58;0.50;;;12.60;99.90;;;;;;5051531;28;20685;-72
2023/10/31 10:01:48;;;;;;;6.18;0.80;;;12.60;99.90;;;;;;5051104;28;20225;-72
2023/10/31 10:04:17;;;;;;;1.30;0.40;;;12.70;99.90;;;;;;5029966;28;20212;-72
2023/10/31 10:06:59;;;;;;;1.85;0.52;;;12.70;99.90;;;;;;5028580;28;20203;-72
2023/10/31 10:09:29;;;;;;;3.15;0.38;;;12.70;99.90;;;;;;5027061;28;20265;-72
2023/10/31 10:11:57;;;;;;;4.20;0.70;;;12.80;99.90;;;;;;5032884;28;20232;-72
2023/10/31 10:14:25;;;;;;;1.15;0.47;;;12.80;99.90;;;;;;5038109;28;20221;-72
2023/10/31 10:16:53;;;;;;;0.50;0.50;;;12.90;99.90;;;;;;5030358;28;20199;-72
2023/10/31 10:19:21;;;;;;;1.98;0.45;;;13.00;99.90;;;;;;5031037;28;20665;-72
2023/10/31 10:21:50;;;;;;;1.55;0.30;;;13.00;99.90;;;;;;5048767;22;20230;-58
2023/10/31 10:24:18;;;;;;;2.33;0.47;;;13.10;99.90;;;;;;5051430;28;20230;-56
2023/10/31 10:26:48;;;;;;;0.90;0.40;;;13.20;99.90;;;;;;5051079;28;20214;-56
2023/10/31 10:29:15;;;;;;;1.73;0.40;;;13.30;99.90;;;;;;5050301;28;20653;-56
2023/10/31 10:31:44;;;;;;;3.53;0.45;;;13.40;99.90;;;;;;5038390;28;20232;-57
2023/10/31 10:34:14;;;;;;;2.08;0.50;;;13.50;99.90;;;;;;5040758;28;20225;-57
2023/10/31 10:36:42;;;;;;;0.50;0.30;;;13.60;99.90;;;;;;5044152;28;20631;-56
2023/10/31 10:39:10;;;;;;;0.30;0.30;;;13.80;99.90;;;;;;5043197;28;20240;-57
2023/10/31 10:41:38;;;;;;;2.70;0.43;;;14.00;99.90;;;;;;5050919;28;20637;-57
2023/10/31 10:44:08;;;;;;;2.20;0.40;;;14.10;99.90;;;;;;5047635;28;20293;-57
2023/10/31 10:46:36;;;;;;;2.28;0.40;;;14.20;99.90;;;;;;5030924;28;20954;-57
2023/10/31 10:49:05;;;;;;;1.20;0.38;;;14.20;99.90;;;;;;5045054;28;20292;-56
2023/10/31 10:51:47;;;;;;;0.90;0.60;;;14.10;99.90;;;;;;5042461;28;20226;-57
2023/10/31 10:54:18;;;;;;;6.53;0.60;;;14.10;99.90;;;;;;5030648;28;20327;-56
2023/10/31 10:56:52;;;;;;;3.30;0.40;;;14.10;99.90;;;;;;5038512;28;20354;-57
2023/10/31 10:59:22;;;;;;;3.55;0.50;;;14.10;99.90;;;;;;5031901;28;20210;-56
2023/10/31 11:01:50;;;;;;;1.25;0.60;;;14.30;99.90;;;;;;5030968;28;20229;-56
2023/10/31 11:04:17;;;;;;;2.28;0.60;;;14.50;99.90;;;;;;5030811;28;20194;-57
2023/10/31 11:06:45;;;;;;;6.80;0.60;;;14.50;99.90;;;;;;5030837;28;20202;-56
2023/10/31 11:09:14;;;;;;;2.83;0.40;;;14.50;99.90;;;;;;5030654;28;20698;-56
2023/10/31 11:11:48;;;;;;;4.43;0.60;;;14.60;99.90;;;;;;5030721;28;20257;-56
2023/10/31 11:14:16;;;;;;;0.65;0.50;;;14.80;99.90;;;;;;5029980;28;20284;-56
2023/10/31 11:16:48;;;;;;;2.05;0.50;;;14.80;99.90;;;;;;5030260;28;20206;-59
2023/10/31 11:19:16;;;;;;;4.10;0.40;;;14.70;99.90;;;;;;5030624;28;20298;-57
2023/10/31 11:21:54;;;;;;;2.13;0.40;;;14.60;99.90;;;;;;5030534;28;20242;-56
2023/10/31 11:24:23;;;;;;;1.90;0.55;;;14.60;99.90;;;;;;5030912;28;20264;-56
2023/10/31 11:26:54;;;;;;;1.90;0.60;;;14.60;99.90;;;;;;5030490;28;20202;-56
2023/10/31 11:29:22;;;;;;;2.10;0.60;;;14.50;99.90;;;;;;5030740;28;20265;-56
2023/10/31 11:31:51;;;;;;;2.97;0.60;;;14.60;99.90;;;;;;5030695;28;20229;-56
2023/10/31 11:34:20;;;;;;;1.98;0.60;;;14.60;99.90;;;;;;5028549;28;20211;-56
2023/10/31 11:36:48;;;;;;;2.97;0.68;;;14.70;99.90;;;;;;5046221;28;20654;-56
2023/10/31 11:39:21;;;;;;;2.25;0.55;;;14.70;99.90;;;;;;5035887;28;20257;-56
2023/10/31 11:41:50;;;;;;;3.70;0.60;;;14.60;99.90;;;;;;5038896;28;20261;-56
2023/10/31 11:44:18;;;;;;;5.53;0.75;;;14.60;99.90;;;;;;5030482;28;20673;-56
2023/10/31 11:46:50;;;;;;;1.65;0.40;;;14.60;99.90;;;;;;5031752;28;20680;-57
2023/10/31 11:49:19;;;;;;;2.83;0.60;;;14.60;99.90;;;;;;5033950;28;20261;-56
2023/10/31 11:51:47;;;;;;;1.02;0.50;;;14.60;99.90;;;;;;5033657;28;20605;-57
2023/10/31 11:54:15;;;;;;;2.90;0.65;;;14.60;99.90;;;;;;5033724;28;20256;-57
2023/10/31 11:56:43;;;;;;;1.58;0.70;;;14.50;99.90;;;;;;5033840;28;20285;-56
2023/10/31 11:59:11;;;;;;;5.53;0.50;;;14.50;99.90;;;;;;5033592;28;20649;-57
2023/10/31 12:01:47;;;;;;;2.75;0.50;;;14.50;99.90;;;;;;5033716;28;20222;-57
2023/10/31 12:04:25;;;;;;;2.08;0.50;;;14.50;99.90;;;;;;5033900;28;20206;-57
2023/10/31 12:07:00;;;;;;;2.25;0.50;;;14.50;99.90;;;;;;5033767;28;20199;-56
2023/10/31 12:09:28;;;;;;;4.13;0.60;;;14.50;99.90;;;;;;5033482;28;20198;-56
2023/10/31 12:11:59;;;;;;;2.97;0.55;;;14.50;99.90;;;;;;5032687;28;20692;-58
2023/10/31 12:14:26;;;;;;;2.47;0.68;;;14.70;99.90;;;;;;5044784;28;20288;-57
2023/10/31 12:16:55;;;;;;;3.53;0.63;;;15.00;99.90;;;;;;5044959;28;20222;-58
2023/10/31 12:19:24;;;;;;;2.45;0.55;;;15.10;99.90;;;;;;5033580;28;20209;-57
2023/10/31 12:21:52;;;;;;;2.92;0.75;;;15.30;99.90;;;;;;5033508;28;20226;-57
2023/10/31 12:24:20;;;;;;;5.60;0.73;;;15.30;99.90;;;;;;5033292;28;20292;-56
2023/10/31 12:26:48;;;;;;;5.07;0.73;;;15.30;99.90;;;;;;5032742;28;20195;-57
2023/10/31 12:29:17;;;;;;;1.95;0.75;;;15.20;99.90;;;;;;5033153;28;20203;-57
2023/10/31 12:31:47;;;;;;;3.00;0.63;;;15.10;99.90;;;;;;5033268;28;20226;-57
2023/10/31 12:34:15;;;;;;;7.28;1.00;;;15.00;99.90;;;;;;5043896;22;20226;-53
2023/10/31 12:36:44;;;;;;;5.28;0.80;;;15.00;99.90;;;;;;5052537;28;20226;-53
2023/10/31 12:39:12;;;;;;;1.95;0.55;;;14.90;99.90;;;;;;5052877;28;20293;-51
2023/10/31 12:41:41;;;;;;;1.48;0.60;;;14.90;99.90;;;;;;5051699;28;20206;-52
2023/10/31 12:44:10;;;;;;;2.75;0.57;;;15.10;99.90;;;;;;5052780;28;20296;-51
2023/10/31 12:46:40;;;;;;;2.33;0.50;;;15.30;99.90;;;;;;5052969;28;20255;-56
2023/10/31 12:49:12;;;;;;;2.05;0.70;;;15.60;99.90;;;;;;5052773;28;20256;-54
2023/10/31 12:51:44;;;;;;;2.10;0.60;;;15.80;99.90;;;;;;5052902;28;20289;-51
2023/10/31 12:54:12;;;;;;;3.08;0.73;;;15.90;99.90;;;;;;5037724;28;20241;-50